Argyle, Michigan
Current Conditions -  °F | °C
As of 12:35 AM on Friday 28 Nov 2014 (Local Time) from KBAX Reporting Station
Overcast Overcast  
Wind Chill: 10°   Ceiling: 3000
Heat Index: 20°   Visibility: 10mi
Dew Point: 12°   Wind: 8mph
Humidity: 72%   Direction: 300°WNW
Pressure: 30.28"   Gusts: NA
Location:  43.56°N, 82.94°W
Report Text: KBAX 280535Z AUTO 30007KT 10SM OVC030 M07/M11 A3028 RMK AO2 T10671110
Loading
Personal Weather Stations






























Interactive Weather Map New forecast layout! Learn more

10-Day Weather Forecast

Advertisements
Track Severe Weather on mobile